PWSweather.com
Personal Weather Stations
Station Observations
ABQWX
Albuquerque, NM 87110

Albuquerque, NM 87110

Lat: 35.1305, Lon: -106.58571

Elevation: 5210

Station Type: LaCrosse

http://www.albuquerqueweather.info/

High Low Average
Temperature 63.1°F17.3°C 36.7°F2.6°C 50.1°F10.1°C
Dew Point 19.9°F-6.7°C 6.1°F-14.4°C 15.1°F-9.4°C
Winds 8.1 mph 13.0 kmh 0.6 mph 1.0 kmh 3.0 mph S4.8 kmh S
Wind Gusts 17.4 mph28.0 kmh 3.1 mph5.0 kmh 7.0 mph11.3 kmh
Humidity 43% 11% 27%
Pressure 30.04 in1017.3 mb 29.89 in1012.2 mb -
Precipitation 0.00 in0.0 mm - -
Hour Temp Dew Point Humidity Winds Wind Gusts Pressure Precip Precip Rate Daily Precip Total
12:00 AM 47.5°F8.6°C 16.8°F-8.4°C 29% 4.0 mph SE6.4 kmh SE 7.4 mph11.9 kmh 29.94 in1013.9 mb 0.00 in0.0 mm 0.00 in/hr0.0 mm/hr 0.00 in0.0 mm
12:15 AM 46.9°F8.3°C 16.3°F-8.7°C 29% 3.8 mph SE6.1 kmh SE 6.0 mph9.7 kmh 29.94 in1013.9 mb 0.00 in0.0 mm 0.00 in/hr0.0 mm/hr 0.00 in0.0 mm
12:30 AM 46.6°F8.1°C 16.0°F-8.9°C 29% 4.2 mph SE6.8 kmh SE 6.9 mph11.1 kmh 29.94 in1013.9 mb 0.00 in0.0 mm 0.00 in/hr0.0 mm/hr 0.00 in0.0 mm
12:45 AM 46.2°F7.9°C 16.4°F-8.7°C 30% 3.2 mph SE5.1 kmh SE 6.3 mph10.1 kmh 29.94 in1013.9 mb 0.00 in0.0 mm 0.00 in/hr0.0 mm/hr 0.00 in0.0 mm
01:00 AM 46.2°F7.9°C 15.7°F-9.1°C 29% 2.8 mph SE4.5 kmh SE 5.6 mph9.0 kmh 29.93 in1013.5 mb 0.00 in0.0 mm 0.00 in/hr0.0 mm/hr 0.00 in0.0 mm
01:15 AM 45.3°F7.4°C 15.7°F-9.1°C 30% 3.1 mph SSE5.0 kmh SSE 4.5 mph7.2 kmh 29.94 in1013.9 mb 0.00 in0.0 mm 0.00 in/hr0.0 mm/hr 0.00 in0.0 mm
01:30 AM 44.4°F6.9°C 15.6°F-9.1°C 31% 1.8 mph SSE2.9 kmh SSE 3.6 mph5.8 kmh 29.94 in1013.9 mb 0.00 in0.0 mm 0.00 in/hr0.0 mm/hr 0.00 in0.0 mm
01:45 AM 45.1°F7.3°C 15.5°F-9.2°C 30% 3.2 mph SSE5.1 kmh SSE 4.5 mph7.2 kmh 29.93 in1013.5 mb 0.00 in0.0 mm 0.00 in/hr0.0 mm/hr 0.00 in0.0 mm
02:00 AM 44.1°F6.7°C 15.3°F-9.3°C 31% 1.6 mph SSE2.6 kmh SSE 3.4 mph5.5 kmh 29.93 in1013.5 mb 0.00 in0.0 mm 0.00 in/hr0.0 mm/hr 0.00 in0.0 mm
02:15 AM 43.9°F6.6°C 15.9°F-8.9°C 32% 1.9 mph SSE3.1 kmh SSE 3.8 mph6.1 kmh 29.93 in1013.5 mb 0.00 in0.0 mm 0.00 in/hr0.0 mm/hr 0.00 in0.0 mm
02:30 AM 43.2°F6.2°C 15.3°F-9.3°C 32% 1.5 mph SSE2.4 kmh SSE 3.8 mph6.1 kmh 29.92 in1013.2 mb 0.00 in0.0 mm 0.00 in/hr0.0 mm/hr 0.00 in0.0 mm
02:45 AM 41.7°F5.4°C 15.4°F-9.2°C 34% 0.6 mph SSE1.0 kmh SSE 3.1 mph5.0 kmh 29.92 in1013.2 mb 0.00 in0.0 mm 0.00 in/hr0.0 mm/hr 0.00 in0.0 mm
03:00 AM 41.2°F5.1°C 15.6°F-9.1°C 35% 1.3 mph SSE2.1 kmh SSE 3.4 mph5.5 kmh 29.91 in1012.9 mb 0.00 in0.0 mm 0.00 in/hr0.0 mm/hr 0.00 in0.0 mm
03:15 AM 40.1°F4.5°C 15.2°F-9.3°C 36% 1.0 mph SSE1.6 kmh SSE 5.1 mph8.2 kmh 29.91 in1012.9 mb 0.00 in0.0 mm 0.00 in/hr0.0 mm/hr 0.00 in0.0 mm
03:30 AM 40.8°F4.9°C 15.9°F-8.9°C 36% 1.7 mph SSE2.7 kmh SSE 5.8 mph9.3 kmh 29.91 in1012.9 mb 0.00 in0.0 mm 0.00 in/hr0.0 mm/hr 0.00 in0.0 mm
03:45 AM 41.2°F5.1°C 16.2°F-8.8°C 36% 2.6 mph SSE4.2 kmh SSE 5.8 mph9.3 kmh 29.90 in1012.5 mb 0.00 in0.0 mm 0.00 in/hr0.0 mm/hr 0.00 in0.0 mm
04:00 AM 41.5°F5.3°C 16.5°F-8.6°C 36% 3.1 mph SSE5.0 kmh SSE 5.8 mph9.3 kmh 29.90 in1012.5 mb 0.00 in0.0 mm 0.00 in/hr0.0 mm/hr 0.00 in0.0 mm
04:15 AM 41.9°F5.5°C 16.9°F-8.4°C 36% 3.3 mph ESE5.3 kmh ESE 6.5 mph10.5 kmh 29.90 in1012.5 mb 0.00 in0.0 mm 0.00 in/hr0.0 mm/hr 0.00 in0.0 mm
04:30 AM 41.5°F5.3°C 16.5°F-8.6°C 36% 1.6 mph ESE2.6 kmh ESE 5.6 mph9.0 kmh 29.90 in1012.5 mb 0.00 in0.0 mm 0.00 in/hr0.0 mm/hr 0.00 in0.0 mm
04:45 AM 40.6°F4.8°C 16.4°F-8.7°C 37% 1.5 mph ESE2.4 kmh ESE 5.4 mph8.7 kmh 29.89 in1012.2 mb 0.00 in0.0 mm 0.00 in/hr0.0 mm/hr 0.00 in0.0 mm
05:00 AM 40.3°F4.6°C 16.0°F-8.9°C 37% 2.6 mph ESE4.2 kmh ESE 5.4 mph8.7 kmh 29.90 in1012.5 mb 0.00 in0.0 mm 0.00 in/hr0.0 mm/hr 0.00 in0.0 mm
05:15 AM 39.9°F4.4°C 16.3°F-8.7°C 38% 2.5 mph ESE4.0 kmh ESE 4.9 mph7.9 kmh 29.90 in1012.5 mb 0.00 in0.0 mm 0.00 in/hr0.0 mm/hr 0.00 in0.0 mm
05:30 AM 39.7°F4.3°C 16.2°F-8.8°C 38% 3.7 mph ESE6.0 kmh ESE 6.9 mph11.1 kmh 29.90 in1012.5 mb 0.00 in0.0 mm 0.00 in/hr0.0 mm/hr 0.00 in0.0 mm
05:45 AM 39.9°F4.4°C 16.3°F-8.7°C 38% 4.7 mph ESE7.6 kmh ESE 7.4 mph11.9 kmh 29.92 in1013.2 mb 0.00 in0.0 mm 0.00 in/hr0.0 mm/hr 0.00 in0.0 mm
06:00 AM 38.7°F3.7°C 15.8°F-9.0°C 39% 2.5 mph ESE4.0 kmh ESE 5.6 mph9.0 kmh 29.93 in1013.5 mb 0.00 in0.0 mm 0.00 in/hr0.0 mm/hr 0.00 in0.0 mm
06:15 AM 38.8°F3.8°C 16.5°F-8.6°C 40% 3.1 mph ESE5.0 kmh ESE 5.4 mph8.7 kmh 29.95 in1014.2 mb 0.00 in0.0 mm 0.00 in/hr0.0 mm/hr 0.00 in0.0 mm
06:30 AM 38.7°F3.7°C 16.4°F-8.7°C 40% 2.9 mph ESE4.7 kmh ESE 4.7 mph7.6 kmh 29.96 in1014.6 mb 0.00 in0.0 mm 0.00 in/hr0.0 mm/hr 0.00 in0.0 mm
06:45 AM 37.9°F3.3°C 16.3°F-8.7°C 41% 2.8 mph ESE4.5 kmh ESE 4.9 mph7.9 kmh 29.97 in1014.9 mb 0.00 in0.0 mm 0.00 in/hr0.0 mm/hr 0.00 in0.0 mm
07:00 AM 36.7°F2.6°C 16.3°F-8.7°C 43% 3.3 mph ESE5.3 kmh ESE 5.6 mph9.0 kmh 29.96 in1014.6 mb 0.00 in0.0 mm 0.00 in/hr0.0 mm/hr 0.00 in0.0 mm
07:15 AM 37.8°F3.2°C 17.2°F-8.2°C 43% 2.1 mph ESE3.4 kmh ESE 3.6 mph5.8 kmh 29.97 in1014.9 mb 0.00 in0.0 mm 0.00 in/hr0.0 mm/hr 0.00 in0.0 mm
07:30 AM 41.2°F5.1°C 18.7°F-7.4°C 40% 1.9 mph ESE3.1 kmh ESE 3.8 mph6.1 kmh 29.98 in1015.2 mb 0.00 in0.0 mm 0.00 in/hr0.0 mm/hr 0.00 in0.0 mm
07:45 AM 43.9°F6.6°C 18.6°F-7.4°C 36% 1.9 mph ESE3.1 kmh ESE 4.3 mph6.9 kmh 30.00 in1015.9 mb 0.00 in0.0 mm 0.00 in/hr0.0 mm/hr 0.00 in0.0 mm
08:00 AM 46.0°F7.8°C 19.2°F-7.1°C 34% 1.4 mph ESE2.3 kmh ESE 4.0 mph6.4 kmh 30.00 in1015.9 mb 0.00 in0.0 mm 0.00 in/hr0.0 mm/hr 0.00 in0.0 mm
08:15 AM 47.8°F8.8°C 19.4°F-7.0°C 32% 1.8 mph ESE2.9 kmh ESE 3.8 mph6.1 kmh 30.00 in1015.9 mb 0.00 in0.0 mm 0.00 in/hr0.0 mm/hr 0.00 in0.0 mm
08:30 AM 48.7°F9.3°C 18.6°F-7.4°C 30% 1.1 mph ESE1.8 kmh ESE 3.6 mph5.8 kmh 30.00 in1015.9 mb 0.00 in0.0 mm 0.00 in/hr0.0 mm/hr 0.00 in0.0 mm
08:45 AM 49.1°F9.5°C 19.0°F-7.2°C 30% 1.3 mph ESE2.1 kmh ESE 3.6 mph5.8 kmh 30.00 in1015.9 mb 0.00 in0.0 mm 0.00 in/hr0.0 mm/hr 0.00 in0.0 mm
09:00 AM 50.2°F10.1°C 19.9°F-6.7°C 30% 2.6 mph SSE4.2 kmh SSE 5.6 mph9.0 kmh 30.00 in1015.9 mb 0.00 in0.0 mm 0.00 in/hr0.0 mm/hr 0.00 in0.0 mm
09:15 AM 51.4°F10.8°C 19.4°F-7.0°C 28% 2.8 mph SSE4.5 kmh SSE 5.4 mph8.7 kmh 30.02 in1016.6 mb 0.00 in0.0 mm 0.00 in/hr0.0 mm/hr 0.00 in0.0 mm
09:30 AM 52.3°F11.3°C 19.3°F-7.1°C 27% 1.8 mph SSE2.9 kmh SSE 4.7 mph7.6 kmh 30.03 in1016.9 mb 0.00 in0.0 mm 0.00 in/hr0.0 mm/hr 0.00 in0.0 mm
09:45 AM 53.4°F11.9°C 19.3°F-7.1°C 26% 1.3 mph W2.1 kmh W 6.9 mph11.1 kmh 30.04 in1017.3 mb 0.00 in0.0 mm 0.00 in/hr0.0 mm/hr 0.00 in0.0 mm
10:00 AM 53.6°F12.0°C 18.6°F-7.4°C 25% 0.8 mph NW1.3 kmh NW 4.3 mph6.9 kmh 30.03 in1016.9 mb 0.00 in0.0 mm 0.00 in/hr0.0 mm/hr 0.00 in0.0 mm
10:15 AM 53.8°F12.1°C 19.7°F-6.8°C 26% 1.4 mph S2.3 kmh S 6.9 mph11.1 kmh 30.03 in1016.9 mb 0.00 in0.0 mm 0.00 in/hr0.0 mm/hr 0.00 in0.0 mm
10:30 AM 55.0°F12.8°C 17.9°F-7.8°C 23% 1.2 mph W1.9 kmh W 3.6 mph5.8 kmh 30.02 in1016.6 mb 0.00 in0.0 mm 0.00 in/hr0.0 mm/hr 0.00 in0.0 mm
10:45 AM 55.2°F12.9°C 17.0°F-8.3°C 22% 1.4 mph W2.3 kmh W 4.9 mph7.9 kmh 30.02 in1016.6 mb 0.00 in0.0 mm 0.00 in/hr0.0 mm/hr 0.00 in0.0 mm
11:00 AM 55.4°F13.0°C 17.1°F-8.3°C 22% 1.9 mph NW3.1 kmh NW 6.0 mph9.7 kmh 30.01 in1016.3 mb 0.00 in0.0 mm 0.00 in/hr0.0 mm/hr 0.00 in0.0 mm
11:15 AM 55.9°F13.3°C 16.5°F-8.6°C 21% 1.3 mph NNW2.1 kmh NNW 6.0 mph9.7 kmh 30.01 in1016.3 mb 0.00 in0.0 mm 0.00 in/hr0.0 mm/hr 0.00 in0.0 mm
11:30 AM 57.0°F13.9°C 16.3°F-8.7°C 20% 2.8 mph NNE4.5 kmh NNE 7.4 mph11.9 kmh 30.01 in1016.3 mb 0.00 in0.0 mm 0.00 in/hr0.0 mm/hr 0.00 in0.0 mm
11:45 AM 58.1°F14.5°C 16.0°F-8.9°C 19% 2.0 mph NNE3.2 kmh NNE 7.8 mph12.6 kmh 30.00 in1015.9 mb 0.00 in0.0 mm 0.00 in/hr0.0 mm/hr 0.00 in0.0 mm
12:00 PM 59.4°F15.2°C 15.8°F-9.0°C 18% 2.2 mph NNW3.5 kmh NNW 9.4 mph15.1 kmh 30.00 in1015.9 mb 0.00 in0.0 mm 0.00 in/hr0.0 mm/hr 0.00 in0.0 mm
12:15 PM 59.2°F15.1°C 15.6°F-9.1°C 18% 1.2 mph NE1.9 kmh NE 4.7 mph7.6 kmh 29.99 in1015.6 mb 0.00 in0.0 mm 0.00 in/hr0.0 mm/hr 0.00 in0.0 mm
12:30 PM 60.6°F15.9°C 14.1°F-9.9°C 16% 1.0 mph E1.6 kmh E 4.3 mph6.9 kmh 29.98 in1015.2 mb 0.00 in0.0 mm 0.00 in/hr0.0 mm/hr 0.00 in0.0 mm
12:45 PM 60.1°F15.6°C 13.7°F-10.2°C 16% 2.8 mph N4.5 kmh N 10.3 mph16.6 kmh 29.98 in1015.2 mb 0.00 in0.0 mm 0.00 in/hr0.0 mm/hr 0.00 in0.0 mm
01:00 PM 61.0°F16.1°C 14.4°F-9.8°C 16% 2.5 mph S4.0 kmh S 8.7 mph14.0 kmh 29.97 in1014.9 mb 0.00 in0.0 mm 0.00 in/hr0.0 mm/hr 0.00 in0.0 mm
01:15 PM 61.5°F16.4°C 10.1°F-12.2°C 13% 4.7 mph WNW7.6 kmh WNW 11.6 mph18.7 kmh 29.97 in1014.9 mb 0.00 in0.0 mm 0.00 in/hr0.0 mm/hr 0.00 in0.0 mm
01:30 PM 61.0°F16.1°C 11.4°F-11.4°C 14% 7.7 mph NNW12.4 kmh NNW 17.4 mph28.0 kmh 29.96 in1014.6 mb 0.00 in0.0 mm 0.00 in/hr0.0 mm/hr 0.00 in0.0 mm
01:45 PM 62.1°F16.7°C 10.6°F-11.9°C 13% 6.3 mph NW10.1 kmh NW 13.6 mph21.9 kmh 29.96 in1014.6 mb 0.00 in0.0 mm 0.00 in/hr0.0 mm/hr 0.00 in0.0 mm
02:00 PM 62.1°F16.7°C 10.6°F-11.9°C 13% 7.0 mph NW11.3 kmh NW 12.5 mph20.1 kmh 29.96 in1014.6 mb 0.00 in0.0 mm 0.00 in/hr0.0 mm/hr 0.00 in0.0 mm
02:15 PM 62.4°F16.9°C 9.1°F-12.7°C 12% 7.2 mph NW11.6 kmh NW 14.5 mph23.3 kmh 29.96 in1014.6 mb 0.00 in0.0 mm 0.00 in/hr0.0 mm/hr 0.00 in0.0 mm
02:30 PM 62.4°F16.9°C 9.1°F-12.7°C 12% 4.9 mph WNW7.9 kmh WNW 10.3 mph16.6 kmh 29.95 in1014.2 mb 0.00 in0.0 mm 0.00 in/hr0.0 mm/hr 0.00 in0.0 mm
02:45 PM 63.0°F17.2°C 9.5°F-12.5°C 12% 4.2 mph NW6.8 kmh NW 11.4 mph18.3 kmh 29.96 in1014.6 mb 0.00 in0.0 mm 0.00 in/hr0.0 mm/hr 0.00 in0.0 mm
03:00 PM 63.1°F17.3°C 7.7°F-13.5°C 11% 6.2 mph NW10.0 kmh NW 13.0 mph20.9 kmh 29.96 in1014.6 mb 0.00 in0.0 mm 0.00 in/hr0.0 mm/hr 0.00 in0.0 mm
03:15 PM 62.6°F17.0°C 7.3°F-13.7°C 11% 3.6 mph NNW5.8 kmh NNW 12.1 mph19.5 kmh 29.96 in1014.6 mb 0.00 in0.0 mm 0.00 in/hr0.0 mm/hr 0.00 in0.0 mm
03:30 PM 63.0°F17.2°C 9.5°F-12.5°C 12% 5.4 mph NNW8.7 kmh NNW 11.9 mph19.2 kmh 29.96 in1014.6 mb 0.00 in0.0 mm 0.00 in/hr0.0 mm/hr 0.00 in0.0 mm
03:45 PM 62.2°F16.8°C 7.0°F-13.9°C 11% 8.0 mph NNW12.9 kmh NNW 16.1 mph25.9 kmh 29.96 in1014.6 mb 0.00 in0.0 mm 0.00 in/hr0.0 mm/hr 0.00 in0.0 mm
04:00 PM 61.5°F16.4°C 6.4°F-14.2°C 11% 8.0 mph N12.9 kmh N 13.6 mph21.9 kmh 29.96 in1014.6 mb 0.00 in0.0 mm 0.00 in/hr0.0 mm/hr 0.00 in0.0 mm
04:15 PM 61.2°F16.2°C 6.1°F-14.4°C 11% 7.3 mph N11.7 kmh N 15.0 mph24.1 kmh 29.96 in1014.6 mb 0.00 in0.0 mm 0.00 in/hr0.0 mm/hr 0.00 in0.0 mm
04:30 PM 61.0°F16.1°C 7.9°F-13.4°C 12% 8.1 mph NNW13.0 kmh NNW 16.1 mph25.9 kmh 29.96 in1014.6 mb 0.00 in0.0 mm 0.00 in/hr0.0 mm/hr 0.00 in0.0 mm
04:45 PM 60.8°F16.0°C 5.9°F-14.5°C 11% 7.2 mph N11.6 kmh N 15.2 mph24.5 kmh 29.96 in1014.6 mb 0.00 in0.0 mm 0.00 in/hr0.0 mm/hr 0.00 in0.0 mm
05:00 PM 59.9°F15.5°C 7.1°F-13.8°C 12% 9.6 mph N15.4 kmh N 17.2 mph27.7 kmh 29.96 in1014.6 mb 0.00 in0.0 mm 0.00 in/hr0.0 mm/hr 0.00 in0.0 mm
05:15 PM 59.0°F15.0°C 6.4°F-14.2°C 12% 9.3 mph N15.0 kmh N 15.9 mph25.6 kmh 29.97 in1014.9 mb 0.00 in0.0 mm 0.00 in/hr0.0 mm/hr 0.00 in0.0 mm
05:30 PM 58.8°F14.9°C 8.0°F-13.3°C 13% 7.7 mph N12.4 kmh N 13.2 mph21.2 kmh 29.98 in1015.2 mb 0.00 in0.0 mm 0.00 in/hr0.0 mm/hr 0.00 in0.0 mm
05:45 PM 57.7°F14.3°C 7.1°F-13.8°C 13% 8.7 mph N14.0 kmh N 18.1 mph29.1 kmh 29.98 in1015.2 mb 0.00 in0.0 mm 0.00 in/hr0.0 mm/hr 0.00 in0.0 mm
06:00 PM 56.3°F13.5°C 6.0°F-14.4°C 13% 8.8 mph N14.2 kmh N 17.0 mph27.4 kmh 29.99 in1015.6 mb 0.00 in0.0 mm 0.00 in/hr0.0 mm/hr 0.00 in0.0 mm
06:15 PM 55.2°F12.9°C 5.1°F-14.9°C 13% 6.9 mph N11.1 kmh N 10.7 mph17.2 kmh 30.00 in1015.9 mb 0.00 in0.0 mm 0.00 in/hr0.0 mm/hr 0.00 in0.0 mm
06:30 PM 54.7°F12.6°C 6.3°F-14.3°C 14% 6.8 mph N10.9 kmh N 15.2 mph24.5 kmh 30.00 in1015.9 mb 0.00 in0.0 mm 0.00 in/hr0.0 mm/hr 0.00 in0.0 mm
06:45 PM 53.8°F12.1°C 5.6°F-14.7°C 14% 7.2 mph N11.6 kmh N 13.4 mph21.6 kmh 30.01 in1016.3 mb 0.00 in0.0 mm 0.00 in/hr0.0 mm/hr 0.00 in0.0 mm
07:00 PM 52.9°F11.6°C 6.4°F-14.2°C 15% 3.6 mph N5.8 kmh N 7.8 mph12.6 kmh 30.01 in1016.3 mb 0.00 in0.0 mm 0.00 in/hr0.0 mm/hr 0.00 in0.0 mm
07:15 PM 52.2°F11.2°C 5.8°F-14.6°C 15% 4.6 mph N7.4 kmh N 13.0 mph20.9 kmh 30.02 in1016.6 mb 0.00 in0.0 mm 0.00 in/hr0.0 mm/hr 0.00 in0.0 mm
07:30 PM 51.6°F10.9°C 6.8°F-14.0°C 16% 4.3 mph N6.9 kmh N 10.1 mph16.3 kmh 30.02 in1016.6 mb 0.00 in0.0 mm 0.00 in/hr0.0 mm/hr 0.00 in0.0 mm
07:45 PM 51.4°F10.8°C 6.7°F-14.1°C 16% 5.7 mph N9.2 kmh N 11.4 mph18.3 kmh 30.02 in1016.6 mb 0.00 in0.0 mm 0.00 in/hr0.0 mm/hr 0.00 in0.0 mm
08:00 PM 50.5°F10.3°C 5.9°F-14.5°C 16% 5.6 mph N9.0 kmh N 12.5 mph20.1 kmh 30.02 in1016.6 mb 0.00 in0.0 mm 0.00 in/hr0.0 mm/hr 0.00 in0.0 mm
08:15 PM 49.3°F9.6°C 7.5°F-13.6°C 18% 6.1 mph N9.8 kmh N 9.6 mph15.4 kmh 30.02 in1016.6 mb 0.00 in0.0 mm 0.00 in/hr0.0 mm/hr 0.00 in0.0 mm
08:30 PM 48.7°F9.3°C 7.0°F-13.9°C 18% 6.3 mph N10.1 kmh N 12.5 mph20.1 kmh 30.02 in1016.6 mb 0.00 in0.0 mm 0.00 in/hr0.0 mm/hr 0.00 in0.0 mm
08:45 PM 48.0°F8.9°C 7.6°F-13.6°C 19% 7.1 mph N11.4 kmh N 11.6 mph18.7 kmh 30.01 in1016.3 mb 0.00 in0.0 mm 0.00 in/hr0.0 mm/hr 0.00 in0.0 mm
09:00 PM 46.9°F8.3°C 7.9°F-13.4°C 20% 6.6 mph NNW10.6 kmh NNW 13.2 mph21.2 kmh 30.02 in1016.6 mb 0.00 in0.0 mm 0.00 in/hr0.0 mm/hr 0.00 in0.0 mm
09:15 PM 45.7°F7.6°C 6.8°F-14.0°C 20% Calm Calm 0.7 mph1.1 kmh 30.03 in1016.9 mb 0.00 in0.0 mm 0.00 in/hr0.0 mm/hr 0.00 in0.0 mm
09:30 PM 44.8°F7.1°C 7.2°F-13.8°C 21% 0.9 mph N1.4 kmh N 5.1 mph8.2 kmh 30.02 in1016.6 mb 0.00 in0.0 mm 0.00 in/hr0.0 mm/hr 0.00 in0.0 mm
09:45 PM 43.3°F6.3°C 7.0°F-13.9°C 22% Calm Calm -- 30.02 in1016.6 mb 0.00 in0.0 mm 0.00 in/hr0.0 mm/hr 0.00 in0.0 mm
10:00 PM 42.6°F5.9°C 7.3°F-13.7°C 23% Calm Calm -- 30.02 in1016.6 mb 0.00 in0.0 mm 0.00 in/hr0.0 mm/hr 0.00 in0.0 mm
10:15 PM 41.9°F5.5°C 7.7°F-13.5°C 24% Calm Calm -- 30.01 in1016.3 mb 0.00 in0.0 mm 0.00 in/hr0.0 mm/hr 0.00 in0.0 mm
10:30 PM 41.4°F5.2°C 8.1°F-13.3°C 25% 0.1 mph N0.2 kmh N 1.6 mph2.6 kmh 30.01 in1016.3 mb 0.00 in0.0 mm 0.00 in/hr0.0 mm/hr 0.00 in0.0 mm
10:45 PM 41.5°F5.3°C 9.1°F-12.7°C 26% 0.1 mph N0.2 kmh N 1.1 mph1.8 kmh 30.01 in1016.3 mb 0.00 in0.0 mm 0.00 in/hr0.0 mm/hr 0.00 in0.0 mm
11:00 PM 40.8°F4.9°C 8.5°F-13.1°C 26% Calm Calm -- 30.01 in1016.3 mb 0.00 in0.0 mm 0.00 in/hr0.0 mm/hr 0.00 in0.0 mm
11:15 PM 40.3°F4.6°C 8.9°F-12.8°C 27% Calm Calm -- 30.02 in1016.6 mb 0.00 in0.0 mm 0.00 in/hr0.0 mm/hr 0.00 in0.0 mm
11:30 PM 40.3°F4.6°C 8.9°F-12.8°C 27% Calm Calm -- 30.02 in1016.6 mb 0.00 in0.0 mm 0.00 in/hr0.0 mm/hr 0.00 in0.0 mm
11:45 PM 39.9°F4.4°C 9.4°F-12.6°C 28% 1.2 mph N1.9 kmh N 3.8 mph6.1 kmh 30.02 in1016.6 mb 0.00 in0.0 mm 0.00 in/hr0.0 mm/hr 0.00 in0.0 mm